<?xml version="1.0" encoding="UTF-8" standalone="no" ?>
<gpx xmlns="http://www.topografix.com/GPX/1/1" xmlns:xsi="http://www.w3.org/2001/XMLSchema-instance" xsi:schemaLocation="http://www.topografix.com/GPX/1/1 http://www.topografix.com/GPX/1/1/gpx.xsd" version="1.1" creator="VisuGPX - https://www.visugpx.com">
  <metadata>
    <name>Off Car</name>
  </metadata>
  <trk>
    <name><![CDATA[Off Car_4]]></name>
    <trkseg>
      <trkpt lat="45.67832" lon="4.69676">
        <ele>364</ele>
        <time>2021-08-23T19:45:45Z</time>
      </trkpt>
      <trkpt lat="45.67836" lon="4.69735">
        <ele>362</ele>
        <time>2021-08-23T19:46:06Z</time>
      </trkpt>
      <trkpt lat="45.67838" lon="4.69879">
        <ele>356</ele>
        <time>2021-08-23T19:46:56Z</time>
      </trkpt>
      <trkpt lat="45.67841" lon="4.69903">
        <ele>356</ele>
        <time>2021-08-23T19:47:05Z</time>
      </trkpt>
      <trkpt lat="45.67859" lon="4.69974">
        <ele>353</ele>
        <time>2021-08-23T19:47:31Z</time>
      </trkpt>
      <trkpt lat="45.67865" lon="4.70011">
        <ele>352</ele>
        <time>2021-08-23T19:47:44Z</time>
      </trkpt>
      <trkpt lat="45.67956" lon="4.70031">
        <ele>353</ele>
        <time>2021-08-23T19:48:30Z</time>
      </trkpt>
      <trkpt lat="45.67961" lon="4.70029">
        <ele>353</ele>
        <time>2021-08-23T19:48:33Z</time>
      </trkpt>
      <trkpt lat="45.67966" lon="4.7002">
        <ele>354</ele>
        <time>2021-08-23T19:48:37Z</time>
      </trkpt>
      <trkpt lat="45.67999" lon="4.69872">
        <ele>362</ele>
        <time>2021-08-23T19:49:31Z</time>
      </trkpt>
      <trkpt lat="45.6808" lon="4.69717">
        <ele>363</ele>
        <time>2021-08-23T19:50:39Z</time>
      </trkpt>
      <trkpt lat="45.68094" lon="4.6973">
        <ele>362</ele>
        <time>2021-08-23T19:50:47Z</time>
      </trkpt>
      <trkpt lat="45.68163" lon="4.69775">
        <ele>358</ele>
        <time>2021-08-23T19:51:25Z</time>
      </trkpt>
      <trkpt lat="45.68232" lon="4.69828">
        <ele>354</ele>
        <time>2021-08-23T19:52:05Z</time>
      </trkpt>
      <trkpt lat="45.6826" lon="4.69855">
        <ele>353</ele>
        <time>2021-08-23T19:52:21Z</time>
      </trkpt>
      <trkpt lat="45.68304" lon="4.6991">
        <ele>352</ele>
        <time>2021-08-23T19:52:51Z</time>
      </trkpt>
      <trkpt lat="45.68321" lon="4.6994">
        <ele>352</ele>
        <time>2021-08-23T19:53:04Z</time>
      </trkpt>
      <trkpt lat="45.68355" lon="4.69973">
        <ele>352</ele>
        <time>2021-08-23T19:53:25Z</time>
      </trkpt>
      <trkpt lat="45.6837" lon="4.69959">
        <ele>352</ele>
        <time>2021-08-23T19:53:34Z</time>
      </trkpt>
      <trkpt lat="45.68398" lon="4.69943">
        <ele>352</ele>
        <time>2021-08-23T19:53:49Z</time>
      </trkpt>
      <trkpt lat="45.68425" lon="4.69939">
        <ele>351</ele>
        <time>2021-08-23T19:54:02Z</time>
      </trkpt>
      <trkpt lat="45.68451" lon="4.69945">
        <ele>349</ele>
        <time>2021-08-23T19:54:16Z</time>
      </trkpt>
      <trkpt lat="45.68468" lon="4.69944">
        <ele>348</ele>
        <time>2021-08-23T19:54:24Z</time>
      </trkpt>
      <trkpt lat="45.68474" lon="4.69904">
        <ele>347</ele>
        <time>2021-08-23T19:54:38Z</time>
      </trkpt>
      <trkpt lat="45.68479" lon="4.6989">
        <ele>346</ele>
        <time>2021-08-23T19:54:44Z</time>
      </trkpt>
      <trkpt lat="45.68532" lon="4.69858">
        <ele>340</ele>
        <time>2021-08-23T19:55:13Z</time>
      </trkpt>
      <trkpt lat="45.68698" lon="4.69745">
        <ele>319</ele>
        <time>2021-08-23T19:56:45Z</time>
      </trkpt>
      <trkpt lat="45.68788" lon="4.69668">
        <ele>312</ele>
        <time>2021-08-23T19:57:37Z</time>
      </trkpt>
      <trkpt lat="45.68835" lon="4.69634">
        <ele>309</ele>
        <time>2021-08-23T19:58:03Z</time>
      </trkpt>
      <trkpt lat="45.68892" lon="4.69607">
        <ele>308</ele>
        <time>2021-08-23T19:58:34Z</time>
      </trkpt>
      <trkpt lat="45.68914" lon="4.69589">
        <ele>308</ele>
        <time>2021-08-23T19:58:46Z</time>
      </trkpt>
      <trkpt lat="45.6896" lon="4.69545">
        <ele>307</ele>
        <time>2021-08-23T19:59:14Z</time>
      </trkpt>
      <trkpt lat="45.68976" lon="4.69535">
        <ele>306</ele>
        <time>2021-08-23T19:59:23Z</time>
      </trkpt>
      <trkpt lat="45.68999" lon="4.69527">
        <ele>305</ele>
        <time>2021-08-23T19:59:34Z</time>
      </trkpt>
      <trkpt lat="45.69071" lon="4.69513">
        <ele>300</ele>
        <time>2021-08-23T20:00:11Z</time>
      </trkpt>
      <trkpt lat="45.6914" lon="4.69466">
        <ele>292</ele>
        <time>2021-08-23T20:00:49Z</time>
      </trkpt>
      <trkpt lat="45.69172" lon="4.69424">
        <ele>289</ele>
        <time>2021-08-23T20:01:11Z</time>
      </trkpt>
      <trkpt lat="45.6923" lon="4.69329">
        <ele>287</ele>
        <time>2021-08-23T20:01:55Z</time>
      </trkpt>
      <trkpt lat="45.69258" lon="4.69303">
        <ele>288</ele>
        <time>2021-08-23T20:02:12Z</time>
      </trkpt>
      <trkpt lat="45.69268" lon="4.69288">
        <ele>288</ele>
        <time>2021-08-23T20:02:19Z</time>
      </trkpt>
      <trkpt lat="45.69267" lon="4.69283">
        <ele>288</ele>
        <time>2021-08-23T20:02:21Z</time>
      </trkpt>
      <trkpt lat="45.69281" lon="4.69259">
        <ele>290</ele>
        <time>2021-08-23T20:02:32Z</time>
      </trkpt>
      <trkpt lat="45.69293" lon="4.69259">
        <ele>291</ele>
        <time>2021-08-23T20:02:38Z</time>
      </trkpt>
      <trkpt lat="45.69312" lon="4.69276">
        <ele>291</ele>
        <time>2021-08-23T20:02:49Z</time>
      </trkpt>
      <trkpt lat="45.69327" lon="4.69283">
        <ele>291</ele>
        <time>2021-08-23T20:02:57Z</time>
      </trkpt>
      <trkpt lat="45.69343" lon="4.69287">
        <ele>292</ele>
        <time>2021-08-23T20:03:05Z</time>
      </trkpt>
      <trkpt lat="45.69356" lon="4.69286">
        <ele>293</ele>
        <time>2021-08-23T20:03:11Z</time>
      </trkpt>
      <trkpt lat="45.69418" lon="4.69258">
        <ele>302</ele>
        <time>2021-08-23T20:03:44Z</time>
      </trkpt>
      <trkpt lat="45.69436" lon="4.69247">
        <ele>305</ele>
        <time>2021-08-23T20:03:54Z</time>
      </trkpt>
      <trkpt lat="45.69455" lon="4.69226">
        <ele>308</ele>
        <time>2021-08-23T20:04:06Z</time>
      </trkpt>
      <trkpt lat="45.69469" lon="4.69232">
        <ele>309</ele>
        <time>2021-08-23T20:04:13Z</time>
      </trkpt>
      <trkpt lat="45.69477" lon="4.69228">
        <ele>310</ele>
        <time>2021-08-23T20:04:17Z</time>
      </trkpt>
      <trkpt lat="45.69501" lon="4.69148">
        <ele>319</ele>
        <time>2021-08-23T20:04:48Z</time>
      </trkpt>
      <trkpt lat="45.69514" lon="4.69148">
        <ele>319</ele>
        <time>2021-08-23T20:04:54Z</time>
      </trkpt>
      <trkpt lat="45.69512" lon="4.69165">
        <ele>318</ele>
        <time>2021-08-23T20:05:00Z</time>
      </trkpt>
      <trkpt lat="45.69518" lon="4.69196">
        <ele>316</ele>
        <time>2021-08-23T20:05:11Z</time>
      </trkpt>
      <trkpt lat="45.69524" lon="4.69274">
        <ele>309</ele>
        <time>2021-08-23T20:05:39Z</time>
      </trkpt>
      <trkpt lat="45.69532" lon="4.69288">
        <ele>308</ele>
        <time>2021-08-23T20:05:45Z</time>
      </trkpt>
      <trkpt lat="45.69545" lon="4.69297">
        <ele>308</ele>
        <time>2021-08-23T20:05:52Z</time>
      </trkpt>
      <trkpt lat="45.69552" lon="4.69314">
        <ele>307</ele>
        <time>2021-08-23T20:05:59Z</time>
      </trkpt>
      <trkpt lat="45.69552" lon="4.69338">
        <ele>306</ele>
        <time>2021-08-23T20:06:08Z</time>
      </trkpt>
      <trkpt lat="45.69548" lon="4.69358">
        <ele>305</ele>
        <time>2021-08-23T20:06:15Z</time>
      </trkpt>
      <trkpt lat="45.69549" lon="4.69432">
        <ele>299</ele>
        <time>2021-08-23T20:06:41Z</time>
      </trkpt>
      <trkpt lat="45.6961" lon="4.69438">
        <ele>297</ele>
        <time>2021-08-23T20:07:11Z</time>
      </trkpt>
      <trkpt lat="45.69651" lon="4.69427">
        <ele>295</ele>
        <time>2021-08-23T20:07:32Z</time>
      </trkpt>
      <trkpt lat="45.69698" lon="4.69402">
        <ele>295</ele>
        <time>2021-08-23T20:07:57Z</time>
      </trkpt>
      <trkpt lat="45.69725" lon="4.69382">
        <ele>296</ele>
        <time>2021-08-23T20:08:13Z</time>
      </trkpt>
      <trkpt lat="45.69826" lon="4.69298">
        <ele>300</ele>
        <time>2021-08-23T20:09:11Z</time>
      </trkpt>
      <trkpt lat="45.69844" lon="4.69296">
        <ele>301</ele>
        <time>2021-08-23T20:09:20Z</time>
      </trkpt>
      <trkpt lat="45.69881" lon="4.69274">
        <ele>303</ele>
        <time>2021-08-23T20:09:40Z</time>
      </trkpt>
      <trkpt lat="45.69893" lon="4.69281">
        <ele>303</ele>
        <time>2021-08-23T20:09:47Z</time>
      </trkpt>
      <trkpt lat="45.69973" lon="4.69238">
        <ele>304</ele>
        <time>2021-08-23T20:10:29Z</time>
      </trkpt>
      <trkpt lat="45.69987" lon="4.69236">
        <ele>304</ele>
        <time>2021-08-23T20:10:36Z</time>
      </trkpt>
      <trkpt lat="45.70055" lon="4.69249">
        <ele>303</ele>
        <time>2021-08-23T20:11:11Z</time>
      </trkpt>
      <trkpt lat="45.70061" lon="4.69246">
        <ele>303</ele>
        <time>2021-08-23T20:11:14Z</time>
      </trkpt>
      <trkpt lat="45.70085" lon="4.6928">
        <ele>302</ele>
        <time>2021-08-23T20:11:31Z</time>
      </trkpt>
      <trkpt lat="45.70071" lon="4.69342">
        <ele>302</ele>
        <time>2021-08-23T20:11:54Z</time>
      </trkpt>
      <trkpt lat="45.70021" lon="4.69399">
        <ele>300</ele>
        <time>2021-08-23T20:12:26Z</time>
      </trkpt>
      <trkpt lat="45.69998" lon="4.69412">
        <ele>299</ele>
        <time>2021-08-23T20:12:38Z</time>
      </trkpt>
      <trkpt lat="45.69974" lon="4.69416">
        <ele>299</ele>
        <time>2021-08-23T20:12:50Z</time>
      </trkpt>
      <trkpt lat="45.69961" lon="4.69432">
        <ele>298</ele>
        <time>2021-08-23T20:12:59Z</time>
      </trkpt>
      <trkpt lat="45.69945" lon="4.69487">
        <ele>295</ele>
        <time>2021-08-23T20:13:19Z</time>
      </trkpt>
      <trkpt lat="45.69928" lon="4.69527">
        <ele>292</ele>
        <time>2021-08-23T20:13:36Z</time>
      </trkpt>
      <trkpt lat="45.69888" lon="4.69573">
        <ele>289</ele>
        <time>2021-08-23T20:14:02Z</time>
      </trkpt>
      <trkpt lat="45.69867" lon="4.69628">
        <ele>287</ele>
        <time>2021-08-23T20:14:23Z</time>
      </trkpt>
      <trkpt lat="45.69846" lon="4.69697">
        <ele>281</ele>
        <time>2021-08-23T20:14:50Z</time>
      </trkpt>
      <trkpt lat="45.69848" lon="4.69742">
        <ele>278</ele>
        <time>2021-08-23T20:15:06Z</time>
      </trkpt>
      <trkpt lat="45.69863" lon="4.69813">
        <ele>280</ele>
        <time>2021-08-23T20:15:31Z</time>
      </trkpt>
      <trkpt lat="45.69859" lon="4.69825">
        <ele>280</ele>
        <time>2021-08-23T20:15:36Z</time>
      </trkpt>
      <trkpt lat="45.69846" lon="4.69849">
        <ele>278</ele>
        <time>2021-08-23T20:15:47Z</time>
      </trkpt>
      <trkpt lat="45.69848" lon="4.69862">
        <ele>278</ele>
        <time>2021-08-23T20:15:51Z</time>
      </trkpt>
      <trkpt lat="45.69864" lon="4.69883">
        <ele>278</ele>
        <time>2021-08-23T20:16:02Z</time>
      </trkpt>
      <trkpt lat="45.69935" lon="4.69917">
        <ele>281</ele>
        <time>2021-08-23T20:16:40Z</time>
      </trkpt>
      <trkpt lat="45.69946" lon="4.69933">
        <ele>282</ele>
        <time>2021-08-23T20:16:48Z</time>
      </trkpt>
      <trkpt lat="45.69953" lon="4.69952">
        <ele>282</ele>
        <time>2021-08-23T20:16:55Z</time>
      </trkpt>
      <trkpt lat="45.69986" lon="4.69995">
        <ele>282</ele>
        <time>2021-08-23T20:17:17Z</time>
      </trkpt>
      <trkpt lat="45.70003" lon="4.70031">
        <ele>280</ele>
        <time>2021-08-23T20:17:33Z</time>
      </trkpt>
      <trkpt lat="45.70008" lon="4.7005">
        <ele>279</ele>
        <time>2021-08-23T20:17:40Z</time>
      </trkpt>
      <trkpt lat="45.70023" lon="4.70078">
        <ele>279</ele>
        <time>2021-08-23T20:17:52Z</time>
      </trkpt>
      <trkpt lat="45.70028" lon="4.70095">
        <ele>279</ele>
        <time>2021-08-23T20:17:58Z</time>
      </trkpt>
      <trkpt lat="45.70091" lon="4.70212">
        <ele>272</ele>
        <time>2021-08-23T20:18:50Z</time>
      </trkpt>
      <trkpt lat="45.70124" lon="4.70279">
        <ele>273</ele>
        <time>2021-08-23T20:19:19Z</time>
      </trkpt>
      <trkpt lat="45.70133" lon="4.70325">
        <ele>272</ele>
        <time>2021-08-23T20:19:35Z</time>
      </trkpt>
      <trkpt lat="45.70138" lon="4.70395">
        <ele>274</ele>
        <time>2021-08-23T20:20:00Z</time>
      </trkpt>
      <trkpt lat="45.70198" lon="4.70309">
        <ele>282</ele>
        <time>2021-08-23T20:20:42Z</time>
      </trkpt>
      <trkpt lat="45.70201" lon="4.70295">
        <ele>283</ele>
        <time>2021-08-23T20:20:48Z</time>
      </trkpt>
      <trkpt lat="45.7019" lon="4.70238">
        <ele>287</ele>
        <time>2021-08-23T20:21:08Z</time>
      </trkpt>
      <trkpt lat="45.70177" lon="4.70187">
        <ele>291</ele>
        <time>2021-08-23T20:21:27Z</time>
      </trkpt>
      <trkpt lat="45.70121" lon="4.70059">
        <ele>298</ele>
        <time>2021-08-23T20:22:20Z</time>
      </trkpt>
      <trkpt lat="45.70171" lon="4.70039">
        <ele>305</ele>
        <time>2021-08-23T20:22:46Z</time>
      </trkpt>
      <trkpt lat="45.70249" lon="4.70026">
        <ele>306</ele>
        <time>2021-08-23T20:23:25Z</time>
      </trkpt>
      <trkpt lat="45.7027" lon="4.70009">
        <ele>306</ele>
        <time>2021-08-23T20:23:37Z</time>
      </trkpt>
      <trkpt lat="45.70328" lon="4.69909">
        <ele>307</ele>
        <time>2021-08-23T20:24:23Z</time>
      </trkpt>
      <trkpt lat="45.70336" lon="4.69873">
        <ele>308</ele>
        <time>2021-08-23T20:24:36Z</time>
      </trkpt>
      <trkpt lat="45.70336" lon="4.69852">
        <ele>308</ele>
        <time>2021-08-23T20:24:43Z</time>
      </trkpt>
      <trkpt lat="45.70325" lon="4.69777">
        <ele>310</ele>
        <time>2021-08-23T20:25:10Z</time>
      </trkpt>
      <trkpt lat="45.70329" lon="4.69765">
        <ele>309</ele>
        <time>2021-08-23T20:25:15Z</time>
      </trkpt>
      <trkpt lat="45.70376" lon="4.69773">
        <ele>307</ele>
        <time>2021-08-23T20:25:38Z</time>
      </trkpt>
      <trkpt lat="45.70423" lon="4.69751">
        <ele>306</ele>
        <time>2021-08-23T20:26:03Z</time>
      </trkpt>
      <trkpt lat="45.70494" lon="4.69828">
        <ele>297</ele>
        <time>2021-08-23T20:26:48Z</time>
      </trkpt>
      <trkpt lat="45.70523" lon="4.69853">
        <ele>293</ele>
        <time>2021-08-23T20:27:05Z</time>
      </trkpt>
      <trkpt lat="45.70572" lon="4.69866">
        <ele>290</ele>
        <time>2021-08-23T20:27:30Z</time>
      </trkpt>
      <trkpt lat="45.70608" lon="4.69894">
        <ele>291</ele>
        <time>2021-08-23T20:27:50Z</time>
      </trkpt>
      <trkpt lat="45.70618" lon="4.69906">
        <ele>291</ele>
        <time>2021-08-23T20:27:57Z</time>
      </trkpt>
      <trkpt lat="45.70624" lon="4.69924">
        <ele>292</ele>
        <time>2021-08-23T20:28:04Z</time>
      </trkpt>
      <trkpt lat="45.70624" lon="4.69962">
        <ele>295</ele>
        <time>2021-08-23T20:28:17Z</time>
      </trkpt>
      <trkpt lat="45.70621" lon="4.69983">
        <ele>296</ele>
        <time>2021-08-23T20:28:24Z</time>
      </trkpt>
      <trkpt lat="45.7061" lon="4.70009">
        <ele>297</ele>
        <time>2021-08-23T20:28:35Z</time>
      </trkpt>
      <trkpt lat="45.70588" lon="4.70039">
        <ele>297</ele>
        <time>2021-08-23T20:28:50Z</time>
      </trkpt>
      <trkpt lat="45.70528" lon="4.70192">
        <ele>298</ele>
        <time>2021-08-23T20:29:52Z</time>
      </trkpt>
      <trkpt lat="45.70506" lon="4.70334">
        <ele>309</ele>
        <time>2021-08-23T20:30:42Z</time>
      </trkpt>
      <trkpt lat="45.70505" lon="4.70353">
        <ele>310</ele>
        <time>2021-08-23T20:30:49Z</time>
      </trkpt>
      <trkpt lat="45.70516" lon="4.70421">
        <ele>315</ele>
        <time>2021-08-23T20:31:13Z</time>
      </trkpt>
      <trkpt lat="45.70519" lon="4.70464">
        <ele>315</ele>
        <time>2021-08-23T20:31:29Z</time>
      </trkpt>
      <trkpt lat="45.70519" lon="4.70579">
        <ele>313</ele>
        <time>2021-08-23T20:32:09Z</time>
      </trkpt>
      <trkpt lat="45.70523" lon="4.70641">
        <ele>311</ele>
        <time>2021-08-23T20:32:31Z</time>
      </trkpt>
      <trkpt lat="45.70539" lon="4.70744">
        <ele>307</ele>
        <time>2021-08-23T20:33:07Z</time>
      </trkpt>
      <trkpt lat="45.7054" lon="4.70811">
        <ele>306</ele>
        <time>2021-08-23T20:33:31Z</time>
      </trkpt>
      <trkpt lat="45.7055" lon="4.70915">
        <ele>307</ele>
        <time>2021-08-23T20:34:08Z</time>
      </trkpt>
      <trkpt lat="45.70539" lon="4.70979">
        <ele>306</ele>
        <time>2021-08-23T20:34:31Z</time>
      </trkpt>
      <trkpt lat="45.70535" lon="4.71026">
        <ele>306</ele>
        <time>2021-08-23T20:34:47Z</time>
      </trkpt>
      <trkpt lat="45.70537" lon="4.71069">
        <ele>305</ele>
        <time>2021-08-23T20:35:02Z</time>
      </trkpt>
      <trkpt lat="45.70546" lon="4.71136">
        <ele>306</ele>
        <time>2021-08-23T20:35:26Z</time>
      </trkpt>
      <trkpt lat="45.70631" lon="4.71319">
        <ele>311</ele>
        <time>2021-08-23T20:36:43Z</time>
      </trkpt>
      <trkpt lat="45.70649" lon="4.71363">
        <ele>311</ele>
        <time>2021-08-23T20:37:01Z</time>
      </trkpt>
      <trkpt lat="45.70692" lon="4.71533">
        <ele>312</ele>
        <time>2021-08-23T20:38:04Z</time>
      </trkpt>
      <trkpt lat="45.70703" lon="4.71613">
        <ele>312</ele>
        <time>2021-08-23T20:38:32Z</time>
      </trkpt>
      <trkpt lat="45.70716" lon="4.71669">
        <ele>314</ele>
        <time>2021-08-23T20:38:53Z</time>
      </trkpt>
      <trkpt lat="45.70714" lon="4.71678">
        <ele>314</ele>
        <time>2021-08-23T20:38:56Z</time>
      </trkpt>
      <trkpt lat="45.70722" lon="4.71759">
        <ele>316</ele>
        <time>2021-08-23T20:39:25Z</time>
      </trkpt>
      <trkpt lat="45.70737" lon="4.7179">
        <ele>316</ele>
        <time>2021-08-23T20:39:38Z</time>
      </trkpt>
      <trkpt lat="45.70774" lon="4.71853">
        <ele>315</ele>
        <time>2021-08-23T20:40:07Z</time>
      </trkpt>
      <trkpt lat="45.70829" lon="4.71935">
        <ele>313</ele>
        <time>2021-08-23T20:40:46Z</time>
      </trkpt>
      <trkpt lat="45.70864" lon="4.71996">
        <ele>313</ele>
        <time>2021-08-23T20:41:14Z</time>
      </trkpt>
      <trkpt lat="45.7084" lon="4.7204">
        <ele>313</ele>
        <time>2021-08-23T20:41:34Z</time>
      </trkpt>
      <trkpt lat="45.70795" lon="4.72156">
        <ele>312</ele>
        <time>2021-08-23T20:42:20Z</time>
      </trkpt>
      <trkpt lat="45.70763" lon="4.72294">
        <ele>311</ele>
        <time>2021-08-23T20:43:11Z</time>
      </trkpt>
      <trkpt lat="45.70748" lon="4.72336">
        <ele>311</ele>
        <time>2021-08-23T20:43:27Z</time>
      </trkpt>
      <trkpt lat="45.7068" lon="4.7245">
        <ele>311</ele>
        <time>2021-08-23T20:44:20Z</time>
      </trkpt>
      <trkpt lat="45.70596" lon="4.72625">
        <ele>310</ele>
        <time>2021-08-23T20:45:34Z</time>
      </trkpt>
      <trkpt lat="45.70549" lon="4.72716">
        <ele>308</ele>
        <time>2021-08-23T20:46:13Z</time>
      </trkpt>
      <trkpt lat="45.70518" lon="4.72755">
        <ele>307</ele>
        <time>2021-08-23T20:46:34Z</time>
      </trkpt>
      <trkpt lat="45.7047" lon="4.72774">
        <ele>307</ele>
        <time>2021-08-23T20:46:59Z</time>
      </trkpt>
      <trkpt lat="45.70439" lon="4.72796">
        <ele>307</ele>
        <time>2021-08-23T20:47:16Z</time>
      </trkpt>
      <trkpt lat="45.70431" lon="4.72828">
        <ele>307</ele>
        <time>2021-08-23T20:47:28Z</time>
      </trkpt>
      <trkpt lat="45.70378" lon="4.72934">
        <ele>306</ele>
        <time>2021-08-23T20:48:14Z</time>
      </trkpt>
      <trkpt lat="45.70335" lon="4.73042">
        <ele>307</ele>
        <time>2021-08-23T20:48:57Z</time>
      </trkpt>
      <trkpt lat="45.70324" lon="4.73088">
        <ele>307</ele>
        <time>2021-08-23T20:49:14Z</time>
      </trkpt>
      <trkpt lat="45.70367" lon="4.73147">
        <ele>308</ele>
        <time>2021-08-23T20:49:44Z</time>
      </trkpt>
      <trkpt lat="45.7039" lon="4.73167">
        <ele>308</ele>
        <time>2021-08-23T20:49:57Z</time>
      </trkpt>
      <trkpt lat="45.70549" lon="4.73271">
        <ele>308</ele>
        <time>2021-08-23T20:51:25Z</time>
      </trkpt>
      <trkpt lat="45.70578" lon="4.73305">
        <ele>307</ele>
        <time>2021-08-23T20:51:44Z</time>
      </trkpt>
      <trkpt lat="45.70693" lon="4.73466">
        <ele>311</ele>
        <time>2021-08-23T20:53:04Z</time>
      </trkpt>
      <trkpt lat="45.70757" lon="4.73533">
        <ele>312</ele>
        <time>2021-08-23T20:53:44Z</time>
      </trkpt>
      <trkpt lat="45.70771" lon="4.73449">
        <ele>310</ele>
        <time>2021-08-23T20:54:14Z</time>
      </trkpt>
      <trkpt lat="45.7078" lon="4.73438">
        <ele>310</ele>
        <time>2021-08-23T20:54:20Z</time>
      </trkpt>
      <trkpt lat="45.70799" lon="4.73356">
        <ele>308</ele>
        <time>2021-08-23T20:54:50Z</time>
      </trkpt>
      <trkpt lat="45.70819" lon="4.73353">
        <ele>309</ele>
        <time>2021-08-23T20:55:00Z</time>
      </trkpt>
      <trkpt lat="45.70852" lon="4.73341">
        <ele>308</ele>
        <time>2021-08-23T20:55:17Z</time>
      </trkpt>
      <trkpt lat="45.70873" lon="4.73345">
        <ele>308</ele>
        <time>2021-08-23T20:55:28Z</time>
      </trkpt>
      <trkpt lat="45.70876" lon="4.7339">
        <ele>310</ele>
        <time>2021-08-23T20:55:44Z</time>
      </trkpt>
      <trkpt lat="45.70845" lon="4.73537">
        <ele>313</ele>
        <time>2021-08-23T20:56:37Z</time>
      </trkpt>
      <trkpt lat="45.70853" lon="4.73544">
        <ele>313</ele>
        <time>2021-08-23T20:56:42Z</time>
      </trkpt>
      <trkpt lat="45.70833" lon="4.73608">
        <ele>314</ele>
        <time>2021-08-23T20:57:06Z</time>
      </trkpt>
      <trkpt lat="45.70787" lon="4.73572">
        <ele>314</ele>
        <time>2021-08-23T20:57:33Z</time>
      </trkpt>
      <trkpt lat="45.70705" lon="4.73496">
        <ele>311</ele>
        <time>2021-08-23T20:58:22Z</time>
      </trkpt>
      <trkpt lat="45.70672" lon="4.73635">
        <ele>312</ele>
        <time>2021-08-23T20:59:13Z</time>
      </trkpt>
      <trkpt lat="45.70556" lon="4.73626">
        <ele>311</ele>
        <time>2021-08-23T21:00:11Z</time>
      </trkpt>
      <trkpt lat="45.70554" lon="4.73688">
        <ele>312</ele>
        <time>2021-08-23T21:00:33Z</time>
      </trkpt>
      <trkpt lat="45.70493" lon="4.73714">
        <ele>311</ele>
        <time>2021-08-23T21:01:05Z</time>
      </trkpt>
      <trkpt lat="45.70501" lon="4.73769">
        <ele>312</ele>
        <time>2021-08-23T21:01:24Z</time>
      </trkpt>
      <trkpt lat="45.7053" lon="4.73844">
        <ele>312</ele>
        <time>2021-08-23T21:01:54Z</time>
      </trkpt>
      <trkpt lat="45.70549" lon="4.73868">
        <ele>312</ele>
        <time>2021-08-23T21:02:07Z</time>
      </trkpt>
      <trkpt lat="45.70556" lon="4.73957">
        <ele>312</ele>
        <time>2021-08-23T21:02:38Z</time>
      </trkpt>
      <trkpt lat="45.70569" lon="4.7405">
        <ele>310</ele>
        <time>2021-08-23T21:03:11Z</time>
      </trkpt>
      <trkpt lat="45.70572" lon="4.74135">
        <ele>309</ele>
        <time>2021-08-23T21:03:41Z</time>
      </trkpt>
      <trkpt lat="45.70583" lon="4.74175">
        <ele>308</ele>
        <time>2021-08-23T21:03:56Z</time>
      </trkpt>
      <trkpt lat="45.70585" lon="4.7419">
        <ele>308</ele>
        <time>2021-08-23T21:04:01Z</time>
      </trkpt>
      <trkpt lat="45.70385" lon="4.74269">
        <ele>311</ele>
        <time>2021-08-23T21:05:45Z</time>
      </trkpt>
      <trkpt lat="45.70408" lon="4.74365">
        <ele>310</ele>
        <time>2021-08-23T21:06:21Z</time>
      </trkpt>
      <trkpt lat="45.70421" lon="4.74438">
        <ele>311</ele>
        <time>2021-08-23T21:06:47Z</time>
      </trkpt>
      <trkpt lat="45.70428" lon="4.74576">
        <ele>312</ele>
        <time>2021-08-23T21:07:35Z</time>
      </trkpt>
      <trkpt lat="45.70432" lon="4.74748">
        <ele>305</ele>
        <time>2021-08-23T21:08:36Z</time>
      </trkpt>
      <trkpt lat="45.70443" lon="4.74809">
        <ele>301</ele>
        <time>2021-08-23T21:08:58Z</time>
      </trkpt>
      <trkpt lat="45.70461" lon="4.75142">
        <ele>278</ele>
        <time>2021-08-23T21:10:54Z</time>
      </trkpt>
      <trkpt lat="45.70464" lon="4.75243">
        <ele>273</ele>
        <time>2021-08-23T21:11:30Z</time>
      </trkpt>
      <trkpt lat="45.70459" lon="4.75249">
        <ele>273</ele>
        <time>2021-08-23T21:11:33Z</time>
      </trkpt>
      <trkpt lat="45.70462" lon="4.75259">
        <ele>272</ele>
        <time>2021-08-23T21:11:37Z</time>
      </trkpt>
      <trkpt lat="45.70463" lon="4.75308">
        <ele>272</ele>
        <time>2021-08-23T21:11:54Z</time>
      </trkpt>
      <trkpt lat="45.70465" lon="4.75336">
        <ele>272</ele>
        <time>2021-08-23T21:12:04Z</time>
      </trkpt>
      <trkpt lat="45.70468" lon="4.75341">
        <ele>273</ele>
        <time>2021-08-23T21:12:06Z</time>
      </trkpt>
      <trkpt lat="45.70467" lon="4.75352">
        <ele>274</ele>
        <time>2021-08-23T21:12:10Z</time>
      </trkpt>
      <trkpt lat="45.70437" lon="4.7539">
        <ele>274</ele>
        <time>2021-08-23T21:12:30Z</time>
      </trkpt>
      <trkpt lat="45.70428" lon="4.75424">
        <ele>276</ele>
        <time>2021-08-23T21:12:43Z</time>
      </trkpt>
      <trkpt lat="45.70454" lon="4.755">
        <ele>285</ele>
        <time>2021-08-23T21:13:12Z</time>
      </trkpt>
      <trkpt lat="45.70468" lon="4.75512">
        <ele>286</ele>
        <time>2021-08-23T21:13:20Z</time>
      </trkpt>
      <trkpt lat="45.7052" lon="4.75511">
        <ele>290</ele>
        <time>2021-08-23T21:13:46Z</time>
      </trkpt>
      <trkpt lat="45.70545" lon="4.75517">
        <ele>292</ele>
        <time>2021-08-23T21:13:59Z</time>
      </trkpt>
      <trkpt lat="45.70567" lon="4.75542">
        <ele>296</ele>
        <time>2021-08-23T21:14:13Z</time>
      </trkpt>
      <trkpt lat="45.70575" lon="4.75577">
        <ele>299</ele>
        <time>2021-08-23T21:14:26Z</time>
      </trkpt>
      <trkpt lat="45.7058" lon="4.75676">
        <ele>302</ele>
        <time>2021-08-23T21:15:01Z</time>
      </trkpt>
      <trkpt lat="45.70607" lon="4.75764">
        <ele>306</ele>
        <time>2021-08-23T21:15:34Z</time>
      </trkpt>
      <trkpt lat="45.7062" lon="4.75781">
        <ele>306</ele>
        <time>2021-08-23T21:15:43Z</time>
      </trkpt>
      <trkpt lat="45.7064" lon="4.75795">
        <ele>307</ele>
        <time>2021-08-23T21:15:54Z</time>
      </trkpt>
      <trkpt lat="45.70688" lon="4.75818">
        <ele>310</ele>
        <time>2021-08-23T21:16:19Z</time>
      </trkpt>
      <trkpt lat="45.70753" lon="4.75856">
        <ele>314</ele>
        <time>2021-08-23T21:16:55Z</time>
      </trkpt>
      <trkpt lat="45.70776" lon="4.75858">
        <ele>315</ele>
        <time>2021-08-23T21:17:06Z</time>
      </trkpt>
      <trkpt lat="45.7079" lon="4.75869">
        <ele>315</ele>
        <time>2021-08-23T21:17:14Z</time>
      </trkpt>
      <trkpt lat="45.70824" lon="4.75923">
        <ele>316</ele>
        <time>2021-08-23T21:17:40Z</time>
      </trkpt>
      <trkpt lat="45.70843" lon="4.75973">
        <ele>315</ele>
        <time>2021-08-23T21:17:59Z</time>
      </trkpt>
      <trkpt lat="45.70851" lon="4.76006">
        <ele>314</ele>
        <time>2021-08-23T21:18:12Z</time>
      </trkpt>
      <trkpt lat="45.70859" lon="4.76074">
        <ele>311</ele>
        <time>2021-08-23T21:18:36Z</time>
      </trkpt>
      <trkpt lat="45.70875" lon="4.76082">
        <ele>312</ele>
        <time>2021-08-23T21:18:44Z</time>
      </trkpt>
      <trkpt lat="45.70914" lon="4.76091">
        <ele>314</ele>
        <time>2021-08-23T21:19:04Z</time>
      </trkpt>
      <trkpt lat="45.70908" lon="4.76135">
        <ele>311</ele>
        <time>2021-08-23T21:19:20Z</time>
      </trkpt>
      <trkpt lat="45.70892" lon="4.76334">
        <ele>295</ele>
        <time>2021-08-23T21:20:30Z</time>
      </trkpt>
      <trkpt lat="45.70886" lon="4.76346">
        <ele>293</ele>
        <time>2021-08-23T21:20:35Z</time>
      </trkpt>
      <trkpt lat="45.70897" lon="4.7636">
        <ele>292</ele>
        <time>2021-08-23T21:20:42Z</time>
      </trkpt>
      <trkpt lat="45.70909" lon="4.76365">
        <ele>291</ele>
        <time>2021-08-23T21:20:48Z</time>
      </trkpt>
      <trkpt lat="45.70971" lon="4.76366">
        <ele>290</ele>
        <time>2021-08-23T21:21:19Z</time>
      </trkpt>
      <trkpt lat="45.70988" lon="4.76362">
        <ele>291</ele>
        <time>2021-08-23T21:21:28Z</time>
      </trkpt>
      <trkpt lat="45.71002" lon="4.76354">
        <ele>292</ele>
        <time>2021-08-23T21:21:36Z</time>
      </trkpt>
      <trkpt lat="45.71026" lon="4.76335">
        <ele>298</ele>
        <time>2021-08-23T21:21:49Z</time>
      </trkpt>
      <trkpt lat="45.71029" lon="4.7634">
        <ele>297</ele>
        <time>2021-08-23T21:21:52Z</time>
      </trkpt>
      <trkpt lat="45.71024" lon="4.76381">
        <ele>290</ele>
        <time>2021-08-23T21:22:06Z</time>
      </trkpt>
      <trkpt lat="45.71015" lon="4.76405">
        <ele>285</ele>
        <time>2021-08-23T21:22:16Z</time>
      </trkpt>
      <trkpt lat="45.7101" lon="4.76427">
        <ele>280</ele>
        <time>2021-08-23T21:22:24Z</time>
      </trkpt>
      <trkpt lat="45.7101" lon="4.76444">
        <ele>277</ele>
        <time>2021-08-23T21:22:30Z</time>
      </trkpt>
      <trkpt lat="45.71016" lon="4.7646">
        <ele>276</ele>
        <time>2021-08-23T21:22:36Z</time>
      </trkpt>
      <trkpt lat="45.71018" lon="4.76476">
        <ele>273</ele>
        <time>2021-08-23T21:22:42Z</time>
      </trkpt>
      <trkpt lat="45.71014" lon="4.7649">
        <ele>270</ele>
        <time>2021-08-23T21:22:47Z</time>
      </trkpt>
      <trkpt lat="45.70994" lon="4.76522">
        <ele>263</ele>
        <time>2021-08-23T21:23:02Z</time>
      </trkpt>
      <trkpt lat="45.70994" lon="4.76534">
        <ele>261</ele>
        <time>2021-08-23T21:23:06Z</time>
      </trkpt>
      <trkpt lat="45.71046" lon="4.76633">
        <ele>253</ele>
        <time>2021-08-23T21:23:50Z</time>
      </trkpt>
      <trkpt lat="45.71073" lon="4.76716">
        <ele>246</ele>
        <time>2021-08-23T21:24:22Z</time>
      </trkpt>
      <trkpt lat="45.71096" lon="4.76833">
        <ele>240</ele>
        <time>2021-08-23T21:25:04Z</time>
      </trkpt>
      <trkpt lat="45.71138" lon="4.7697">
        <ele>234</ele>
        <time>2021-08-23T21:25:56Z</time>
      </trkpt>
      <trkpt lat="45.71142" lon="4.76993">
        <ele>233</ele>
        <time>2021-08-23T21:26:05Z</time>
      </trkpt>
      <trkpt lat="45.71163" lon="4.76999">
        <ele>235</ele>
        <time>2021-08-23T21:26:15Z</time>
      </trkpt>
      <trkpt lat="45.71261" lon="4.77001">
        <ele>238</ele>
        <time>2021-08-23T21:27:04Z</time>
      </trkpt>
      <trkpt lat="45.71298" lon="4.76998">
        <ele>237</ele>
        <time>2021-08-23T21:27:23Z</time>
      </trkpt>
      <trkpt lat="45.71318" lon="4.76992">
        <ele>237</ele>
        <time>2021-08-23T21:27:33Z</time>
      </trkpt>
      <trkpt lat="45.71445" lon="4.76972">
        <ele>246</ele>
        <time>2021-08-23T21:28:37Z</time>
      </trkpt>
      <trkpt lat="45.71455" lon="4.76966">
        <ele>246</ele>
        <time>2021-08-23T21:28:42Z</time>
      </trkpt>
      <trkpt lat="45.71495" lon="4.76965">
        <ele>248</ele>
        <time>2021-08-23T21:29:02Z</time>
      </trkpt>
      <trkpt lat="45.71607" lon="4.76926">
        <ele>252</ele>
        <time>2021-08-23T21:30:00Z</time>
      </trkpt>
      <trkpt lat="45.71609" lon="4.76942">
        <ele>251</ele>
        <time>2021-08-23T21:30:06Z</time>
      </trkpt>
      <trkpt lat="45.71606" lon="4.76987">
        <ele>250</ele>
        <time>2021-08-23T21:30:22Z</time>
      </trkpt>
      <trkpt lat="45.71733" lon="4.77029">
        <ele>247</ele>
        <time>2021-08-23T21:31:27Z</time>
      </trkpt>
      <trkpt lat="45.71744" lon="4.77057">
        <ele>246</ele>
        <time>2021-08-23T21:31:38Z</time>
      </trkpt>
      <trkpt lat="45.71803" lon="4.77046">
        <ele>245</ele>
        <time>2021-08-23T21:32:08Z</time>
      </trkpt>
      <trkpt lat="45.71917" lon="4.77085">
        <ele>245</ele>
        <time>2021-08-23T21:33:07Z</time>
      </trkpt>
      <trkpt lat="45.71936" lon="4.77148">
        <ele>242</ele>
        <time>2021-08-23T21:33:30Z</time>
      </trkpt>
      <trkpt lat="45.71916" lon="4.77189">
        <ele>240</ele>
        <time>2021-08-23T21:33:48Z</time>
      </trkpt>
      <trkpt lat="45.71916" lon="4.77215">
        <ele>240</ele>
        <time>2021-08-23T21:33:57Z</time>
      </trkpt>
      <trkpt lat="45.71925" lon="4.77269">
        <ele>239</ele>
        <time>2021-08-23T21:34:16Z</time>
      </trkpt>
      <trkpt lat="45.71997" lon="4.77243">
        <ele>240</ele>
        <time>2021-08-23T21:34:54Z</time>
      </trkpt>
      <trkpt lat="45.7203" lon="4.77234">
        <ele>241</ele>
        <time>2021-08-23T21:35:10Z</time>
      </trkpt>
      <trkpt lat="45.72038" lon="4.77239">
        <ele>240</ele>
        <time>2021-08-23T21:35:15Z</time>
      </trkpt>
      <trkpt lat="45.72052" lon="4.77276">
        <ele>240</ele>
        <time>2021-08-23T21:35:29Z</time>
      </trkpt>
      <trkpt lat="45.72054" lon="4.77297">
        <ele>239</ele>
        <time>2021-08-23T21:35:37Z</time>
      </trkpt>
      <trkpt lat="45.72069" lon="4.77356">
        <ele>238</ele>
        <time>2021-08-23T21:35:59Z</time>
      </trkpt>
      <trkpt lat="45.72066" lon="4.77372">
        <ele>238</ele>
        <time>2021-08-23T21:36:05Z</time>
      </trkpt>
      <trkpt lat="45.72053" lon="4.77401">
        <ele>237</ele>
        <time>2021-08-23T21:36:17Z</time>
      </trkpt>
      <trkpt lat="45.72052" lon="4.77414">
        <ele>237</ele>
        <time>2021-08-23T21:36:21Z</time>
      </trkpt>
      <trkpt lat="45.72058" lon="4.7743">
        <ele>236</ele>
        <time>2021-08-23T21:36:28Z</time>
      </trkpt>
      <trkpt lat="45.72065" lon="4.77438">
        <ele>235</ele>
        <time>2021-08-23T21:36:32Z</time>
      </trkpt>
      <trkpt lat="45.72085" lon="4.7745">
        <ele>232</ele>
        <time>2021-08-23T21:36:43Z</time>
      </trkpt>
      <trkpt lat="45.72141" lon="4.77469">
        <ele>227</ele>
        <time>2021-08-23T21:37:12Z</time>
      </trkpt>
      <trkpt lat="45.72172" lon="4.77492">
        <ele>223</ele>
        <time>2021-08-23T21:37:29Z</time>
      </trkpt>
      <trkpt lat="45.72197" lon="4.77506">
        <ele>219</ele>
        <time>2021-08-23T21:37:43Z</time>
      </trkpt>
      <trkpt lat="45.72218" lon="4.77514">
        <ele>217</ele>
        <time>2021-08-23T21:37:53Z</time>
      </trkpt>
      <trkpt lat="45.72299" lon="4.7758">
        <ele>211</ele>
        <time>2021-08-23T21:38:40Z</time>
      </trkpt>
      <trkpt lat="45.72348" lon="4.77631">
        <ele>207</ele>
        <time>2021-08-23T21:39:10Z</time>
      </trkpt>
      <trkpt lat="45.72396" lon="4.77637">
        <ele>204</ele>
        <time>2021-08-23T21:39:35Z</time>
      </trkpt>
      <trkpt lat="45.72396" lon="4.77634">
        <ele>205</ele>
        <time>2021-08-23T21:39:36Z</time>
      </trkpt>
      <trkpt lat="45.72402" lon="4.77627">
        <ele>205</ele>
        <time>2021-08-23T21:39:39Z</time>
      </trkpt>
      <trkpt lat="45.72409" lon="4.77634">
        <ele>204</ele>
        <time>2021-08-23T21:39:44Z</time>
      </trkpt>
      <trkpt lat="45.72446" lon="4.77604">
        <ele>205</ele>
        <time>2021-08-23T21:40:05Z</time>
      </trkpt>
      <trkpt lat="45.72468" lon="4.77554">
        <ele>207</ele>
        <time>2021-08-23T21:40:26Z</time>
      </trkpt>
      <trkpt lat="45.72513" lon="4.77524">
        <ele>207</ele>
        <time>2021-08-23T21:40:50Z</time>
      </trkpt>
      <trkpt lat="45.72568" lon="4.77508">
        <ele>209</ele>
        <time>2021-08-23T21:41:19Z</time>
      </trkpt>
      <trkpt lat="45.7258" lon="4.77576">
        <ele>207</ele>
        <time>2021-08-23T21:41:43Z</time>
      </trkpt>
      <trkpt lat="45.72579" lon="4.77621">
        <ele>205</ele>
        <time>2021-08-23T21:41:59Z</time>
      </trkpt>
      <trkpt lat="45.72582" lon="4.77651">
        <ele>204</ele>
        <time>2021-08-23T21:42:09Z</time>
      </trkpt>
      <trkpt lat="45.72597" lon="4.77704">
        <ele>198</ele>
        <time>2021-08-23T21:42:29Z</time>
      </trkpt>
      <trkpt lat="45.72608" lon="4.77761">
        <ele>192</ele>
        <time>2021-08-23T21:42:50Z</time>
      </trkpt>
      <trkpt lat="45.72632" lon="4.77928">
        <ele>177</ele>
        <time>2021-08-23T21:43:50Z</time>
      </trkpt>
      <trkpt lat="45.72635" lon="4.77982">
        <ele>177</ele>
        <time>2021-08-23T21:44:09Z</time>
      </trkpt>
      <trkpt lat="45.72656" lon="4.78116">
        <ele>192</ele>
        <time>2021-08-23T21:44:57Z</time>
      </trkpt>
      <trkpt lat="45.72654" lon="4.7813">
        <ele>194</ele>
        <time>2021-08-23T21:45:01Z</time>
      </trkpt>
      <trkpt lat="45.72633" lon="4.78156">
        <ele>195</ele>
        <time>2021-08-23T21:45:15Z</time>
      </trkpt>
      <trkpt lat="45.7263" lon="4.78165">
        <ele>196</ele>
        <time>2021-08-23T21:45:19Z</time>
      </trkpt>
      <trkpt lat="45.72626" lon="4.78234">
        <ele>208</ele>
        <time>2021-08-23T21:45:43Z</time>
      </trkpt>
      <trkpt lat="45.72643" lon="4.78298">
        <ele>220</ele>
        <time>2021-08-23T21:46:07Z</time>
      </trkpt>
      <trkpt lat="45.72657" lon="4.7833">
        <ele>224</ele>
        <time>2021-08-23T21:46:20Z</time>
      </trkpt>
      <trkpt lat="45.72667" lon="4.78363">
        <ele>228</ele>
        <time>2021-08-23T21:46:33Z</time>
      </trkpt>
      <trkpt lat="45.72684" lon="4.78449">
        <ele>236</ele>
        <time>2021-08-23T21:47:04Z</time>
      </trkpt>
      <trkpt lat="45.72706" lon="4.7858">
        <ele>248</ele>
        <time>2021-08-23T21:47:51Z</time>
      </trkpt>
      <trkpt lat="45.72714" lon="4.78646">
        <ele>253</ele>
        <time>2021-08-23T21:48:14Z</time>
      </trkpt>
      <trkpt lat="45.72652" lon="4.78668">
        <ele>253</ele>
        <time>2021-08-23T21:48:46Z</time>
      </trkpt>
      <trkpt lat="45.72633" lon="4.78687">
        <ele>256</ele>
        <time>2021-08-23T21:48:58Z</time>
      </trkpt>
      <trkpt lat="45.7262" lon="4.78707">
        <ele>257</ele>
        <time>2021-08-23T21:49:08Z</time>
      </trkpt>
      <trkpt lat="45.72612" lon="4.78739">
        <ele>260</ele>
        <time>2021-08-23T21:49:19Z</time>
      </trkpt>
      <trkpt lat="45.72608" lon="4.78747">
        <ele>261</ele>
        <time>2021-08-23T21:49:23Z</time>
      </trkpt>
      <trkpt lat="45.72623" lon="4.78794">
        <ele>263</ele>
        <time>2021-08-23T21:49:41Z</time>
      </trkpt>
      <trkpt lat="45.72635" lon="4.78849">
        <ele>267</ele>
        <time>2021-08-23T21:50:01Z</time>
      </trkpt>
      <trkpt lat="45.72644" lon="4.78877">
        <ele>269</ele>
        <time>2021-08-23T21:50:12Z</time>
      </trkpt>
      <trkpt lat="45.72653" lon="4.78892">
        <ele>272</ele>
        <time>2021-08-23T21:50:19Z</time>
      </trkpt>
      <trkpt lat="45.72686" lon="4.78935">
        <ele>278</ele>
        <time>2021-08-23T21:50:41Z</time>
      </trkpt>
      <trkpt lat="45.72758" lon="4.78996">
        <ele>281</ele>
        <time>2021-08-23T21:51:23Z</time>
      </trkpt>
      <trkpt lat="45.7268" lon="4.79102">
        <ele>268</ele>
        <time>2021-08-23T21:52:17Z</time>
      </trkpt>
      <trkpt lat="45.72664" lon="4.79091">
        <ele>266</ele>
        <time>2021-08-23T21:52:26Z</time>
      </trkpt>
      <trkpt lat="45.72649" lon="4.7909">
        <ele>261</ele>
        <time>2021-08-23T21:52:33Z</time>
      </trkpt>
      <trkpt lat="45.72633" lon="4.79083">
        <ele>257</ele>
        <time>2021-08-23T21:52:41Z</time>
      </trkpt>
      <trkpt lat="45.72619" lon="4.79086">
        <ele>252</ele>
        <time>2021-08-23T21:52:49Z</time>
      </trkpt>
      <trkpt lat="45.72609" lon="4.79093">
        <ele>249</ele>
        <time>2021-08-23T21:52:54Z</time>
      </trkpt>
      <trkpt lat="45.72603" lon="4.79108">
        <ele>246</ele>
        <time>2021-08-23T21:53:00Z</time>
      </trkpt>
      <trkpt lat="45.72604" lon="4.79144">
        <ele>245</ele>
        <time>2021-08-23T21:53:13Z</time>
      </trkpt>
      <trkpt lat="45.72609" lon="4.79179">
        <ele>246</ele>
        <time>2021-08-23T21:53:25Z</time>
      </trkpt>
      <trkpt lat="45.72606" lon="4.79181">
        <ele>245</ele>
        <time>2021-08-23T21:53:27Z</time>
      </trkpt>
      <trkpt lat="45.72597" lon="4.79207">
        <ele>242</ele>
        <time>2021-08-23T21:53:37Z</time>
      </trkpt>
      <trkpt lat="45.72589" lon="4.79239">
        <ele>240</ele>
        <time>2021-08-23T21:53:49Z</time>
      </trkpt>
      <trkpt lat="45.72586" lon="4.79263">
        <ele>239</ele>
        <time>2021-08-23T21:53:57Z</time>
      </trkpt>
      <trkpt lat="45.72589" lon="4.793">
        <ele>239</ele>
        <time>2021-08-23T21:54:10Z</time>
      </trkpt>
      <trkpt lat="45.7258" lon="4.79295">
        <ele>237</ele>
        <time>2021-08-23T21:54:15Z</time>
      </trkpt>
      <trkpt lat="45.7257" lon="4.79272">
        <ele>234</ele>
        <time>2021-08-23T21:54:25Z</time>
      </trkpt>
      <trkpt lat="45.72571" lon="4.7924">
        <ele>234</ele>
        <time>2021-08-23T21:54:36Z</time>
      </trkpt>
      <trkpt lat="45.7258" lon="4.79218">
        <ele>237</ele>
        <time>2021-08-23T21:54:45Z</time>
      </trkpt>
      <trkpt lat="45.72582" lon="4.79179">
        <ele>238</ele>
        <time>2021-08-23T21:54:58Z</time>
      </trkpt>
      <trkpt lat="45.72572" lon="4.79141">
        <ele>235</ele>
        <time>2021-08-23T21:55:13Z</time>
      </trkpt>
      <trkpt lat="45.72554" lon="4.79105">
        <ele>230</ele>
        <time>2021-08-23T21:55:28Z</time>
      </trkpt>
      <trkpt lat="45.72551" lon="4.79106">
        <ele>229</ele>
        <time>2021-08-23T21:55:30Z</time>
      </trkpt>
      <trkpt lat="45.7255" lon="4.79114">
        <ele>228</ele>
        <time>2021-08-23T21:55:33Z</time>
      </trkpt>
      <trkpt lat="45.72558" lon="4.79135">
        <ele>231</ele>
        <time>2021-08-23T21:55:41Z</time>
      </trkpt>
      <trkpt lat="45.72563" lon="4.79159">
        <ele>231</ele>
        <time>2021-08-23T21:55:50Z</time>
      </trkpt>
      <trkpt lat="45.72556" lon="4.79181">
        <ele>229</ele>
        <time>2021-08-23T21:55:58Z</time>
      </trkpt>
      <trkpt lat="45.72546" lon="4.79275">
        <ele>226</ele>
        <time>2021-08-23T21:56:31Z</time>
      </trkpt>
      <trkpt lat="45.72553" lon="4.79325">
        <ele>229</ele>
        <time>2021-08-23T21:56:49Z</time>
      </trkpt>
      <trkpt lat="45.72551" lon="4.79345">
        <ele>229</ele>
        <time>2021-08-23T21:56:56Z</time>
      </trkpt>
      <trkpt lat="45.72537" lon="4.79371">
        <ele>225</ele>
        <time>2021-08-23T21:57:08Z</time>
      </trkpt>
      <trkpt lat="45.72529" lon="4.79364">
        <ele>223</ele>
        <time>2021-08-23T21:57:12Z</time>
      </trkpt>
      <trkpt lat="45.72499" lon="4.79377">
        <ele>215</ele>
        <time>2021-08-23T21:57:28Z</time>
      </trkpt>
      <trkpt lat="45.72482" lon="4.79389">
        <ele>212</ele>
        <time>2021-08-23T21:57:37Z</time>
      </trkpt>
      <trkpt lat="45.72477" lon="4.79402">
        <ele>211</ele>
        <time>2021-08-23T21:57:43Z</time>
      </trkpt>
      <trkpt lat="45.72486" lon="4.79424">
        <ele>213</ele>
        <time>2021-08-23T21:57:52Z</time>
      </trkpt>
      <trkpt lat="45.72491" lon="4.79425">
        <ele>214</ele>
        <time>2021-08-23T21:57:54Z</time>
      </trkpt>
      <trkpt lat="45.72496" lon="4.79417">
        <ele>214</ele>
        <time>2021-08-23T21:57:58Z</time>
      </trkpt>
      <trkpt lat="45.72502" lon="4.7942">
        <ele>216</ele>
        <time>2021-08-23T21:58:01Z</time>
      </trkpt>
      <trkpt lat="45.72502" lon="4.79433">
        <ele>216</ele>
        <time>2021-08-23T21:58:06Z</time>
      </trkpt>
      <trkpt lat="45.72508" lon="4.7944">
        <ele>218</ele>
        <time>2021-08-23T21:58:09Z</time>
      </trkpt>
      <trkpt lat="45.72519" lon="4.79439">
        <ele>221</ele>
        <time>2021-08-23T21:58:15Z</time>
      </trkpt>
      <trkpt lat="45.72527" lon="4.79431">
        <ele>223</ele>
        <time>2021-08-23T21:58:20Z</time>
      </trkpt>
      <trkpt lat="45.72532" lon="4.79432">
        <ele>225</ele>
        <time>2021-08-23T21:58:22Z</time>
      </trkpt>
      <trkpt lat="45.72533" lon="4.79438">
        <ele>225</ele>
        <time>2021-08-23T21:58:25Z</time>
      </trkpt>
      <trkpt lat="45.72539" lon="4.79446">
        <ele>227</ele>
        <time>2021-08-23T21:58:29Z</time>
      </trkpt>
      <trkpt lat="45.72544" lon="4.79438">
        <ele>228</ele>
        <time>2021-08-23T21:58:32Z</time>
      </trkpt>
      <trkpt lat="45.72554" lon="4.79435">
        <ele>231</ele>
        <time>2021-08-23T21:58:38Z</time>
      </trkpt>
      <trkpt lat="45.72549" lon="4.79444">
        <ele>230</ele>
        <time>2021-08-23T21:58:42Z</time>
      </trkpt>
      <trkpt lat="45.72533" lon="4.795">
        <ele>227</ele>
        <time>2021-08-23T21:59:03Z</time>
      </trkpt>
      <trkpt lat="45.72561" lon="4.79596">
        <ele>235</ele>
        <time>2021-08-23T21:59:39Z</time>
      </trkpt>
      <trkpt lat="45.72564" lon="4.79625">
        <ele>238</ele>
        <time>2021-08-23T21:59:49Z</time>
      </trkpt>
      <trkpt lat="45.72575" lon="4.7964">
        <ele>242</ele>
        <time>2021-08-23T21:59:57Z</time>
      </trkpt>
      <trkpt lat="45.72578" lon="4.7965">
        <ele>244</ele>
        <time>2021-08-23T22:00:01Z</time>
      </trkpt>
      <trkpt lat="45.72576" lon="4.7967">
        <ele>244</ele>
        <time>2021-08-23T22:00:08Z</time>
      </trkpt>
      <trkpt lat="45.72583" lon="4.79715">
        <ele>248</ele>
        <time>2021-08-23T22:00:24Z</time>
      </trkpt>
      <trkpt lat="45.72602" lon="4.79714">
        <ele>251</ele>
        <time>2021-08-23T22:00:33Z</time>
      </trkpt>
      <trkpt lat="45.7261" lon="4.79716">
        <ele>253</ele>
        <time>2021-08-23T22:00:37Z</time>
      </trkpt>
      <trkpt lat="45.72607" lon="4.79727">
        <ele>253</ele>
        <time>2021-08-23T22:00:42Z</time>
      </trkpt>
      <trkpt lat="45.7262" lon="4.79886">
        <ele>251</ele>
        <time>2021-08-23T22:01:37Z</time>
      </trkpt>
      <trkpt lat="45.72625" lon="4.79917">
        <ele>250</ele>
        <time>2021-08-23T22:01:49Z</time>
      </trkpt>
      <trkpt lat="45.72629" lon="4.80003">
        <ele>251</ele>
        <time>2021-08-23T22:02:19Z</time>
      </trkpt>
      <trkpt lat="45.72643" lon="4.80047">
        <ele>251</ele>
        <time>2021-08-23T22:02:36Z</time>
      </trkpt>
      <trkpt lat="45.72668" lon="4.80109">
        <ele>252</ele>
        <time>2021-08-23T22:03:01Z</time>
      </trkpt>
      <trkpt lat="45.7267" lon="4.80122">
        <ele>252</ele>
        <time>2021-08-23T22:03:05Z</time>
      </trkpt>
      <trkpt lat="45.72636" lon="4.80315">
        <ele>244</ele>
        <time>2021-08-23T22:04:15Z</time>
      </trkpt>
      <trkpt lat="45.72602" lon="4.80439">
        <ele>230</ele>
        <time>2021-08-23T22:05:01Z</time>
      </trkpt>
      <trkpt lat="45.72624" lon="4.80462">
        <ele>231</ele>
        <time>2021-08-23T22:05:15Z</time>
      </trkpt>
      <trkpt lat="45.72618" lon="4.80471">
        <ele>230</ele>
        <time>2021-08-23T22:05:19Z</time>
      </trkpt>
      <trkpt lat="45.72602" lon="4.80475">
        <ele>228</ele>
        <time>2021-08-23T22:05:27Z</time>
      </trkpt>
      <trkpt lat="45.72601" lon="4.80506">
        <ele>227</ele>
        <time>2021-08-23T22:05:38Z</time>
      </trkpt>
      <trkpt lat="45.72597" lon="4.80527">
        <ele>227</ele>
        <time>2021-08-23T22:05:46Z</time>
      </trkpt>
      <trkpt lat="45.72621" lon="4.80548">
        <ele>228</ele>
        <time>2021-08-23T22:06:00Z</time>
      </trkpt>
      <trkpt lat="45.72626" lon="4.80558">
        <ele>228</ele>
        <time>2021-08-23T22:06:04Z</time>
      </trkpt>
      <trkpt lat="45.72621" lon="4.80591">
        <ele>228</ele>
        <time>2021-08-23T22:06:16Z</time>
      </trkpt>
      <trkpt lat="45.72627" lon="4.8061">
        <ele>229</ele>
        <time>2021-08-23T22:06:23Z</time>
      </trkpt>
      <trkpt lat="45.72628" lon="4.80643">
        <ele>231</ele>
        <time>2021-08-23T22:06:35Z</time>
      </trkpt>
      <trkpt lat="45.72564" lon="4.80691">
        <ele>233</ele>
        <time>2021-08-23T22:07:11Z</time>
      </trkpt>
      <trkpt lat="45.72521" lon="4.80716">
        <ele>233</ele>
        <time>2021-08-23T22:07:34Z</time>
      </trkpt>
      <trkpt lat="45.72533" lon="4.80746">
        <ele>235</ele>
        <time>2021-08-23T22:07:46Z</time>
      </trkpt>
      <trkpt lat="45.72554" lon="4.80776">
        <ele>237</ele>
        <time>2021-08-23T22:08:01Z</time>
      </trkpt>
      <trkpt lat="45.72571" lon="4.80789">
        <ele>238</ele>
        <time>2021-08-23T22:08:11Z</time>
      </trkpt>
      <trkpt lat="45.72592" lon="4.80824">
        <ele>239</ele>
        <time>2021-08-23T22:08:27Z</time>
      </trkpt>
      <trkpt lat="45.72611" lon="4.80846">
        <ele>238</ele>
        <time>2021-08-23T22:08:39Z</time>
      </trkpt>
      <trkpt lat="45.72646" lon="4.80911">
        <ele>235</ele>
        <time>2021-08-23T22:09:08Z</time>
      </trkpt>
      <trkpt lat="45.72661" lon="4.80927">
        <ele>234</ele>
        <time>2021-08-23T22:09:17Z</time>
      </trkpt>
      <trkpt lat="45.72677" lon="4.80933">
        <ele>234</ele>
        <time>2021-08-23T22:09:25Z</time>
      </trkpt>
      <trkpt lat="45.72701" lon="4.80934">
        <ele>236</ele>
        <time>2021-08-23T22:09:37Z</time>
      </trkpt>
      <trkpt lat="45.72737" lon="4.80926">
        <ele>240</ele>
        <time>2021-08-23T22:09:56Z</time>
      </trkpt>
      <trkpt lat="45.72743" lon="4.80927">
        <ele>240</ele>
        <time>2021-08-23T22:09:59Z</time>
      </trkpt>
      <trkpt lat="45.72754" lon="4.80922">
        <ele>241</ele>
        <time>2021-08-23T22:10:04Z</time>
      </trkpt>
      <trkpt lat="45.72811" lon="4.80966">
        <ele>241</ele>
        <time>2021-08-23T22:10:37Z</time>
      </trkpt>
      <trkpt lat="45.72834" lon="4.8101">
        <ele>243</ele>
        <time>2021-08-23T22:10:56Z</time>
      </trkpt>
      <trkpt lat="45.72848" lon="4.81026">
        <ele>243</ele>
        <time>2021-08-23T22:11:05Z</time>
      </trkpt>
      <trkpt lat="45.72873" lon="4.81032">
        <ele>243</ele>
        <time>2021-08-23T22:11:18Z</time>
      </trkpt>
      <trkpt lat="45.72902" lon="4.81034">
        <ele>243</ele>
        <time>2021-08-23T22:11:32Z</time>
      </trkpt>
      <trkpt lat="45.72947" lon="4.81133">
        <ele>237</ele>
        <time>2021-08-23T22:12:14Z</time>
      </trkpt>
      <trkpt lat="45.72949" lon="4.81145">
        <ele>237</ele>
        <time>2021-08-23T22:12:18Z</time>
      </trkpt>
      <trkpt lat="45.72993" lon="4.81248">
        <ele>225</ele>
        <time>2021-08-23T22:13:00Z</time>
      </trkpt>
      <trkpt lat="45.72995" lon="4.81256">
        <ele>224</ele>
        <time>2021-08-23T22:13:03Z</time>
      </trkpt>
      <trkpt lat="45.72992" lon="4.81278">
        <ele>221</ele>
        <time>2021-08-23T22:13:11Z</time>
      </trkpt>
      <trkpt lat="45.73007" lon="4.81339">
        <ele>211</ele>
        <time>2021-08-23T22:13:33Z</time>
      </trkpt>
      <trkpt lat="45.73034" lon="4.81367">
        <ele>199</ele>
        <time>2021-08-23T22:13:50Z</time>
      </trkpt>
      <trkpt lat="45.7308" lon="4.81454">
        <ele>173</ele>
        <time>2021-08-23T22:14:28Z</time>
      </trkpt>
      <trkpt lat="45.73114" lon="4.81389">
        <ele>179</ele>
        <time>2021-08-23T22:14:57Z</time>
      </trkpt>
      <trkpt lat="45.73128" lon="4.81367">
        <ele>183</ele>
        <time>2021-08-23T22:15:07Z</time>
      </trkpt>
      <trkpt lat="45.7314" lon="4.81355">
        <ele>184</ele>
        <time>2021-08-23T22:15:14Z</time>
      </trkpt>
      <trkpt lat="45.73198" lon="4.81326">
        <ele>182</ele>
        <time>2021-08-23T22:15:45Z</time>
      </trkpt>
      <trkpt lat="45.73248" lon="4.81308">
        <ele>180</ele>
        <time>2021-08-23T22:16:11Z</time>
      </trkpt>
      <trkpt lat="45.73245" lon="4.81318">
        <ele>178</ele>
        <time>2021-08-23T22:16:15Z</time>
      </trkpt>
      <trkpt lat="45.73138" lon="4.81374">
        <ele>179</ele>
        <time>2021-08-23T22:17:12Z</time>
      </trkpt>
      <trkpt lat="45.73122" lon="4.81401">
        <ele>175</ele>
        <time>2021-08-23T22:17:24Z</time>
      </trkpt>
      <trkpt lat="45.73047" lon="4.81553">
        <ele>168</ele>
        <time>2021-08-23T22:18:29Z</time>
      </trkpt>
      <trkpt lat="45.73035" lon="4.81567">
        <ele>167</ele>
        <time>2021-08-23T22:18:37Z</time>
      </trkpt>
      <trkpt lat="45.73016" lon="4.81582">
        <ele>166</ele>
        <time>2021-08-23T22:18:48Z</time>
      </trkpt>
      <trkpt lat="45.73014" lon="4.81572">
        <ele>167</ele>
        <time>2021-08-23T22:18:51Z</time>
      </trkpt>
      <trkpt lat="45.73015" lon="4.81575">
        <ele>167</ele>
        <time>2021-08-23T22:18:52Z</time>
      </trkpt>
      <trkpt lat="45.73033" lon="4.81566">
        <ele>167</ele>
        <time>2021-08-23T22:19:02Z</time>
      </trkpt>
      <trkpt lat="45.73043" lon="4.81564">
        <ele>167</ele>
        <time>2021-08-23T22:19:07Z</time>
      </trkpt>
      <trkpt lat="45.73065" lon="4.81566">
        <ele>166</ele>
        <time>2021-08-23T22:19:18Z</time>
      </trkpt>
      <trkpt lat="45.73077" lon="4.81573">
        <ele>165</ele>
        <time>2021-08-23T22:19:25Z</time>
      </trkpt>
      <trkpt lat="45.73188" lon="4.81666">
        <ele>166</ele>
        <time>2021-08-23T22:20:29Z</time>
      </trkpt>
      <trkpt lat="45.73254" lon="4.81735">
        <ele>169</ele>
        <time>2021-08-23T22:21:10Z</time>
      </trkpt>
      <trkpt lat="45.73263" lon="4.81737">
        <ele>169</ele>
        <time>2021-08-23T22:21:14Z</time>
      </trkpt>
      <trkpt lat="45.73336" lon="4.81801">
        <ele>168</ele>
        <time>2021-08-23T22:21:57Z</time>
      </trkpt>
      <trkpt lat="45.73345" lon="4.81817">
        <ele>168</ele>
        <time>2021-08-23T22:22:04Z</time>
      </trkpt>
      <trkpt lat="45.73367" lon="4.81841">
        <ele>168</ele>
        <time>2021-08-23T22:22:18Z</time>
      </trkpt>
      <trkpt lat="45.73336" lon="4.8195">
        <ele>165</ele>
        <time>2021-08-23T22:22:59Z</time>
      </trkpt>
      <trkpt lat="45.73198" lon="4.82124">
        <ele>165</ele>
        <time>2021-08-23T22:24:31Z</time>
      </trkpt>
      <trkpt lat="45.73191" lon="4.82137">
        <ele>165</ele>
        <time>2021-08-23T22:24:37Z</time>
      </trkpt>
      <trkpt lat="45.73182" lon="4.82168">
        <ele>166</ele>
        <time>2021-08-23T22:24:49Z</time>
      </trkpt>
      <trkpt lat="45.73166" lon="4.82273">
        <ele>167</ele>
        <time>2021-08-23T22:25:26Z</time>
      </trkpt>
      <trkpt lat="45.73056" lon="4.82249">
        <ele>167</ele>
        <time>2021-08-23T22:26:22Z</time>
      </trkpt>
      <trkpt lat="45.73001" lon="4.82234">
        <ele>165</ele>
        <time>2021-08-23T22:26:50Z</time>
      </trkpt>
      <trkpt lat="45.72991" lon="4.82226">
        <ele>166</ele>
        <time>2021-08-23T22:26:56Z</time>
      </trkpt>
      <trkpt lat="45.72913" lon="4.82144">
        <ele>165</ele>
        <time>2021-08-23T22:27:44Z</time>
      </trkpt>
      <trkpt lat="45.72903" lon="4.82155">
        <ele>166</ele>
        <time>2021-08-23T22:27:50Z</time>
      </trkpt>
      <trkpt lat="45.729" lon="4.82288">
        <ele>167</ele>
        <time>2021-08-23T22:28:37Z</time>
      </trkpt>
      <trkpt lat="45.72883" lon="4.82287">
        <ele>167</ele>
        <time>2021-08-23T22:28:45Z</time>
      </trkpt>
      <trkpt lat="45.72881" lon="4.82367">
        <ele>166</ele>
        <time>2021-08-23T22:29:13Z</time>
      </trkpt>
      <trkpt lat="45.72972" lon="4.82373">
        <ele>168</ele>
        <time>2021-08-23T22:29:59Z</time>
      </trkpt>
      <trkpt lat="45.72972" lon="4.82416">
        <ele>169</ele>
        <time>2021-08-23T22:30:14Z</time>
      </trkpt>
      <trkpt lat="45.72995" lon="4.82418">
        <ele>170</ele>
        <time>2021-08-23T22:30:26Z</time>
      </trkpt>
      <trkpt lat="45.72995" lon="4.82458">
        <ele>172</ele>
        <time>2021-08-23T22:30:40Z</time>
      </trkpt>
      <trkpt lat="45.73018" lon="4.82466">
        <ele>172</ele>
        <time>2021-08-23T22:30:51Z</time>
      </trkpt>
    </trkseg>
  </trk>
</gpx>